Time;durP1;ratioP1;P1;durP2;ratioP2;P2;SDS_P1;SDS_P2;PMS_P1;PMS_P2;Temp;Humidity;BMP_temperature;BMP_pressure;BME280_temperature;BME280_humidity;BME280_pressure;Samples;Min_cycle;Max_cycle;Signal;HPM_P1;HPM_P2
2023/08/02 00:01:58;;;;;;;4.80;2.17;;;;;;;;;;20998986;28;20047;-67
2023/08/02 00:12:00;;;;;;;8.10;6.00;;;;;;;;;;20996882;28;20075;-67
2023/08/02 00:22:01;;;;;;;9.02;6.03;;;;;;;;;;20997786;28;20412;-67
2023/08/02 00:32:02;;;;;;;3.28;2.22;;;;;;;;;;20996729;28;20505;-67
2023/08/02 00:42:03;;;;;;;4.95;2.50;;;;;;;;;;20996858;28;20485;-68
2023/08/02 00:52:05;;;;;;;4.78;2.22;;;;;;;;;;20996256;28;20047;-68
2023/08/02 01:02:06;;;;;;;4.22;2.25;;;;;;;;;;20994754;28;20040;-68
2023/08/02 01:12:09;;;;;;;3.65;2.50;;;;;;;;;;20995083;28;20410;-67
2023/08/02 01:22:10;;;;;;;5.80;2.78;;;;;;;;;;20995451;28;20201;-67
2023/08/02 01:32:11;;;;;;;3.85;2.70;;;;;;;;;;20995046;28;20044;-66
2023/08/02 01:42:14;;;;;;;5.47;2.90;;;;;;;;;;21005715;28;20055;-67
2023/08/02 01:52:15;;;;;;;4.05;2.60;;;;;;;;;;21009204;28;20127;-67
2023/08/02 02:02:16;;;;;;;4.28;1.52;;;;;;;;;;21008243;28;20044;-67
2023/08/02 02:12:18;;;;;;;3.72;1.90;;;;;;;;;;21006837;28;20044;-67
2023/08/02 02:22:19;;;;;;;5.38;2.30;;;;;;;;;;21006912;28;20130;-66
2023/08/02 02:32:20;;;;;;;3.47;2.20;;;;;;;;;;21006253;28;20063;-67
2023/08/02 02:42:21;;;;;;;5.88;3.30;;;;;;;;;;21005476;28;20532;-67
2023/08/02 02:52:23;;;;;;;2.80;1.95;;;;;;;;;;21004152;28;20049;-68
2023/08/02 03:02:24;;;;;;;4.03;2.00;;;;;;;;;;21003677;28;20056;-67
2023/08/02 03:12:25;;;;;;;9.00;2.22;;;;;;;;;;21002533;28;20052;-67
2023/08/02 03:22:26;;;;;;;3.80;2.10;;;;;;;;;;21000839;28;20124;-67
2023/08/02 03:32:27;;;;;;;5.85;2.58;;;;;;;;;;21001256;28;20465;-67
2023/08/02 03:42:28;;;;;;;3.65;1.80;;;;;;;;;;20998918;28;20131;-67
2023/08/02 03:52:29;;;;;;;5.13;2.70;;;;;;;;;;20999559;28;20044;-67
2023/08/02 04:02:32;;;;;;;4.15;2.60;;;;;;;;;;20998021;28;20048;-66
2023/08/02 04:12:33;;;;;;;4.68;2.50;;;;;;;;;;20997808;28;20094;-67
2023/08/02 04:22:34;;;;;;;7.13;2.67;;;;;;;;;;20996331;28;20051;-67
2023/08/02 04:32:35;;;;;;;8.52;2.40;;;;;;;;;;20996911;28;20055;-66
2023/08/02 04:42:37;;;;;;;5.15;2.47;;;;;;;;;;20996370;28;20044;-65
2023/08/02 04:52:38;;;;;;;5.40;2.42;;;;;;;;;;20994954;28;20064;-66
2023/08/02 05:02:39;;;;;;;5.70;2.47;;;;;;;;;;20995615;28;20529;-67
2023/08/02 05:12:40;;;;;;;3.75;2.25;;;;;;;;;;21001003;28;20493;-67
2023/08/02 05:22:41;;;;;;;7.35;2.50;;;;;;;;;;21011669;28;20052;-66
2023/08/02 05:32:42;;;;;;;4.28;2.60;;;;;;;;;;21010342;28;20405;-67
2023/08/02 05:42:44;;;;;;;6.40;2.80;;;;;;;;;;21009411;28;20072;-66
2023/08/02 05:52:45;;;;;;;4.43;2.60;;;;;;;;;;21008780;28;20056;-66
2023/08/02 06:02:46;;;;;;;6.85;2.85;;;;;;;;;;21007888;28;20051;-66
2023/08/02 06:12:47;;;;;;;6.78;2.00;;;;;;;;;;21007064;28;20391;-66
2023/08/02 06:22:48;;;;;;;5.35;3.13;;;;;;;;;;21005726;28;20486;-66
2023/08/02 06:32:49;;;;;;;6.05;2.80;;;;;;;;;;21005837;28;20097;-67
2023/08/02 06:42:50;;;;;;;5.90;2.50;;;;;;;;;;21004740;28;20063;-67
2023/08/02 06:52:51;;;;;;;6.43;2.80;;;;;;;;;;21003261;28;20056;-67
2023/08/02 07:02:52;;;;;;;13.45;3.08;;;;;;;;;;21002833;28;20212;-67
2023/08/02 07:12:54;;;;;;;9.82;3.03;;;;;;;;;;21001154;28;20082;-67
2023/08/02 07:22:55;;;;;;;6.40;2.22;;;;;;;;;;21001096;28;20044;-67
2023/08/02 07:32:56;;;;;;;5.90;2.50;;;;;;;;;;20998961;28;20041;-66
2023/08/02 07:42:59;;;;;;;14.60;3.08;;;;;;;;;;20998414;28;20051;-66
2023/08/02 07:53:00;;;;;;;17.52;4.32;;;;;;;;;;20997538;28;20083;-67
2023/08/02 08:03:03;;;;;;;8.95;3.58;;;;;;;;;;20996827;28;20139;-67
2023/08/02 08:13:04;;;;;;;8.15;3.47;;;;;;;;;;20996696;28;20506;-67
2023/08/02 08:23:05;;;;;;;9.25;3.08;;;;;;;;;;20997158;28;20124;-67
2023/08/02 08:33:06;;;;;;;10.05;2.83;;;;;;;;;;20996199;28;20379;-67
2023/08/02 08:43:07;;;;;;;4.38;2.50;;;;;;;;;;20995956;28;20544;-67
2023/08/02 08:53:14;;;;;;;5.57;2.25;;;;;;;;;;20994982;28;20440;-67
2023/08/02 09:03:15;;;;;;;3.80;2.45;;;;;;;;;;20995431;28;20056;-65
2023/08/02 09:13:26;;;;;;;5.57;1.85;;;;;;;;;;20993086;28;20082;-67
2023/08/02 09:23:27;;;;;;;3.40;2.10;;;;;;;;;;20993994;28;20043;-68
2023/08/02 09:33:28;;;;;;;2.83;1.88;;;;;;;;;;20993272;28;20041;-68
2023/08/02 09:43:29;;;;;;;4.80;2.55;;;;;;;;;;20993276;28;20121;-68
2023/08/02 09:53:30;;;;;;;4.20;2.65;;;;;;;;;;20991446;28;20053;-68
2023/08/02 10:03:32;;;;;;;3.55;1.95;;;;;;;;;;21002989;28;20045;-67
2023/08/02 10:13:36;;;;;;;2.85;2.13;;;;;;;;;;21005389;28;20160;-68
2023/08/02 10:23:37;;;;;;;3.67;2.80;;;;;;;;;;21006319;28;20062;-67
2023/08/02 10:33:38;;;;;;;6.07;3.38;;;;;;;;;;21005074;28;20043;-67
2023/08/02 10:44:00;;;;;;;4.32;3.28;;;;;;;;;;21004747;28;20044;-68
2023/08/02 10:54:11;;;;;;;4.00;2.42;;;;;;;;;;21002576;28;20045;-67
2023/08/02 11:04:12;;;;;;;3.65;1.55;;;;;;;;;;21002675;28;20048;-66
2023/08/02 11:14:25;;;;;;;3.60;2.50;;;;;;;;;;21000696;28;20170;-67
2023/08/02 11:24:27;;;;;;;3.75;2.17;;;;;;;;;;20999637;28;20048;-67
2023/08/02 11:34:29;;;;;;;2.17;1.75;;;;;;;;;;21000643;28;20128;-68
2023/08/02 11:44:30;;;;;;;2.22;1.73;;;;;;;;;;20999246;28;20070;-68
2023/08/02 11:54:31;;;;;;;2.17;1.88;;;;;;;;;;20999583;28;20080;-68
2023/08/02 12:04:39;;;;;;;4.22;2.33;;;;;;;;;;20998411;28;20051;-67
2023/08/02 12:14:40;;;;;;;2.70;2.05;;;;;;;;;;20996169;28;20160;-67
2023/08/02 12:24:42;;;;;;;3.03;2.00;;;;;;;;;;20995238;28;20131;-66
2023/08/02 12:34:43;;;;;;;4.65;2.50;;;;;;;;;;20996675;28;20050;-68
2023/08/02 12:44:44;;;;;;;3.30;2.13;;;;;;;;;;20996558;28;20051;-67
2023/08/02 12:54:45;;;;;;;4.10;1.90;;;;;;;;;;20994660;28;20049;-67
2023/08/02 13:04:46;;;;;;;2.72;1.90;;;;;;;;;;20995680;28;20474;-67
2023/08/02 13:14:47;;;;;;;2.67;1.95;;;;;;;;;;20995180;28;20053;-67
2023/08/02 13:24:48;;;;;;;2.95;2.03;;;;;;;;;;20993944;28;20048;-67
2023/08/02 13:34:49;;;;;;;3.05;2.08;;;;;;;;;;21002584;28;20044;-67
2023/08/02 13:44:51;;;;;;;2.53;1.80;;;;;;;;;;21010541;28;20044;-67
2023/08/02 13:54:52;;;;;;;3.45;2.40;;;;;;;;;;21007669;28;20048;-67
2023/08/02 14:04:53;;;;;;;3.15;2.17;;;;;;;;;;21006915;28;20044;-67
2023/08/02 14:14:54;;;;;;;4.03;2.22;;;;;;;;;;21005988;28;20057;-69
2023/08/02 14:24:55;;;;;;;6.57;2.10;;;;;;;;;;21004924;28;20078;-67
2023/08/02 14:34:56;;;;;;;3.65;1.90;;;;;;;;;;21005488;28;20044;-68
2023/08/02 14:44:57;;;;;;;2.63;2.10;;;;;;;;;;21004395;28;20040;-68
2023/08/02 14:54:59;;;;;;;2.28;1.70;;;;;;;;;;21004367;28;20045;-68
2023/08/02 15:05:01;;;;;;;1.75;1.42;;;;;;;;;;21001945;28;20052;-68
2023/08/02 15:15:02;;;;;;;3.35;2.60;;;;;;;;;;21001276;28;20160;-68
2023/08/02 15:25:04;;;;;;;2.40;1.60;;;;;;;;;;21001868;28;20548;-67
2023/08/02 15:35:06;;;;;;;1.85;1.20;;;;;;;;;;21001087;28;20043;-68
2023/08/02 15:45:07;;;;;;;3.38;1.42;;;;;;;;;;21000414;28;20037;-68
2023/08/02 15:55:08;;;;;;;3.88;1.13;;;;;;;;;;20998605;28;20452;-68
2023/08/02 16:05:11;;;;;;;3.10;2.55;;;;;;;;;;20999030;28;20079;-68
2023/08/02 16:15:12;;;;;;;2.40;1.40;;;;;;;;;;20996935;28;20467;-69
2023/08/02 16:25:13;;;;;;;2.63;1.40;;;;;;;;;;20997755;28;20413;-69
2023/08/02 16:35:14;;;;;;;1.15;0.88;;;;;;;;;;20996818;28;20456;-68
2023/08/02 16:45:16;;;;;;;1.67;1.00;;;;;;;;;;20996804;28;20460;-68
2023/08/02 16:55:17;;;;;;;1.23;0.70;;;;;;;;;;20996258;28;20045;-68
2023/08/02 17:05:18;;;;;;;2.25;0.90;;;;;;;;;;20996743;28;20470;-68
2023/08/02 17:15:20;;;;;;;1.08;0.80;;;;;;;;;;21011784;28;20071;-68
2023/08/02 17:25:21;;;;;;;2.25;1.15;;;;;;;;;;21011096;28;20041;-68
2023/08/02 17:35:22;;;;;;;1.75;0.80;;;;;;;;;;21009231;28;20080;-68
2023/08/02 17:45:23;;;;;;;5.25;2.92;;;;;;;;;;21009806;28;20046;-66
2023/08/02 17:55:25;;;;;;;1.58;0.30;;;;;;;;;;21008780;28;20057;-67
2023/08/02 18:05:26;;;;;;;6.07;0.82;;;;;;;;;;21006930;28;20036;-68
2023/08/02 18:15:27;;;;;;;1.55;0.35;;;;;;;;;;21006175;28;20080;-68
2023/08/02 18:25:28;;;;;;;0.93;0.30;;;;;;;;;;21005963;28;20174;-69
2023/08/02 18:35:29;;;;;;;1.27;0.70;;;;;;;;;;21005727;28;20044;-68
2023/08/02 18:45:30;;;;;;;1.60;0.70;;;;;;;;;;21005218;28;20050;-69
2023/08/02 18:55:36;;;;;;;1.83;0.50;;;;;;;;;;20997088;28;20055;-69
2023/08/02 19:05:37;;;;;;;3.35;0.40;;;;;;;;;;20995571;28;20485;-67
2023/08/02 19:15:38;;;;;;;3.67;0.50;;;;;;;;;;20995127;28;20048;-67
2023/08/02 19:25:40;;;;;;;1.27;0.50;;;;;;;;;;20993655;28;20044;-68
2023/08/02 19:35:45;;;;;;;2.10;0.47;;;;;;;;;;21000794;28;20537;-67
2023/08/02 19:45:46;;;;;;;;;;;;;;;;;;21000301;28;20052;-68
2023/08/02 19:55:48;;;;;;;0.55;0.30;;;;;;;;;;20999289;28;19996;-67
2023/08/02 20:05:52;;;;;;;1.00;0.35;;;;;;;;;;20997781;28;20468;-67
2023/08/02 20:15:53;;;;;;;0.87;0.40;;;;;;;;;;20996060;28;20055;-66
2023/08/02 20:25:55;;;;;;;1.65;0.40;;;;;;;;;;20996985;28;20105;-65
2023/08/02 20:36:00;;;;;;;0.73;0.43;;;;;;;;;;20996272;28;20048;-65
2023/08/02 20:46:01;;;;;;;2.95;0.25;;;;;;;;;;20995811;28;20119;-66
2023/08/02 20:56:06;;;;;;;0.45;0.20;;;;;;;;;;20995600;28;20182;-66
2023/08/02 21:06:08;;;;;;;1.30;0.40;;;;;;;;;;20996761;28;20043;-66
2023/08/02 21:16:11;;;;;;;3.30;1.38;;;;;;;;;;20993528;28;20049;-67
2023/08/02 21:26:21;;;;;;;3.15;0.47;;;;;;;;;;20994717;28;20079;-66
2023/08/02 21:36:23;;;;;;;1.30;0.95;;;;;;;;;;20993020;28;20050;-65
2023/08/02 21:46:24;;;;;;;0.68;0.50;;;;;;;;;;20993894;28;20040;-66
2023/08/02 21:56:25;;;;;;;2.03;0.80;;;;;;;;;;21000427;28;20529;-66
2023/08/02 22:06:31;;;;;;;0.70;0.40;;;;;;;;;;21007654;28;20135;-66
2023/08/02 22:16:33;;;;;;;1.38;0.50;;;;;;;;;;21006637;28;20049;-65
2023/08/02 22:26:34;;;;;;;2.15;0.50;;;;;;;;;;21006602;28;20045;-65
2023/08/02 22:36:35;;;;;;;2.88;0.88;;;;;;;;;;21006274;28;20110;-66
2023/08/02 22:46:37;;;;;;;1.42;0.55;;;;;;;;;;21005223;28;20490;-65
2023/08/02 22:56:38;;;;;;;1.77;0.60;;;;;;;;;;21004354;28;20051;-65
2023/08/02 23:06:39;;;;;;;0.30;0.30;;;;;;;;;;21003223;28;20040;-65
2023/08/02 23:16:40;;;;;;;2.42;0.60;;;;;;;;;;21001577;28;20060;-65
2023/08/02 23:26:41;;;;;;;2.35;0.73;;;;;;;;;;21002263;28;20040;-65
2023/08/02 23:36:42;;;;;;;1.25;0.80;;;;;;;;;;21001103;28;20048;-66
2023/08/02 23:46:43;;;;;;;2.38;0.98;;;;;;;;;;21000207;28;20401;-65
2023/08/02 23:56:44;;;;;;;1.90;0.28;;;;;;;;;;20999723;28;20440;-65
